createdAt,value
2022-11-24T00:00:09.666Z,99.99
2022-11-24T00:01:09.725Z,99.99
2022-11-24T00:02:09.802Z,99.99
2022-11-24T00:03:09.761Z,99.99
2022-11-24T00:04:09.626Z,99.99
2022-11-24T00:05:09.606Z,99.99
2022-11-24T00:06:09.586Z,99.99
2022-11-24T00:07:09.665Z,99.99
2022-11-24T00:08:09.568Z,99.99
2022-11-24T00:09:09.626Z,99.99
2022-11-24T00:10:09.548Z,99.99
2022-11-24T00:11:09.553Z,99.99
2022-11-24T00:12:09.519Z,99.99
2022-11-24T00:13:09.518Z,99.99
2022-11-24T00:14:09.499Z,99.99
2022-11-24T00:15:09.512Z,99.99
2022-11-24T00:16:09.495Z,99.99
2022-11-24T00:17:09.567Z,99.99
2022-11-24T00:18:09.459Z,99.99
2022-11-24T00:19:09.487Z,99.99
2022-11-24T00:20:09.449Z,99.99
2022-11-24T00:21:09.451Z,99.99
2022-11-24T00:22:09.425Z,99.99
2022-11-24T00:23:09.419Z,99.99
2022-11-24T00:24:09.400Z,99.99
2022-11-24T00:25:09.406Z,99.99
2022-11-24T00:26:09.399Z,99.99
2022-11-24T00:27:09.372Z,99.99
2022-11-24T00:28:09.353Z,99.99
2022-11-24T00:29:09.383Z,99.99
2022-11-24T00:30:09.343Z,99.99
2022-11-24T00:31:13.838Z,99.99
2022-11-24T00:32:10.312Z,99.99
2022-11-24T00:33:09.314Z,99.99
2022-11-24T00:34:09.292Z,99.99
2022-11-24T00:35:09.295Z,99.99
2022-11-24T00:36:09.492Z,99.99
2022-11-24T00:37:09.285Z,99.99
2022-11-24T00:38:09.310Z,99.99
2022-11-24T00:39:09.263Z,99.99
2022-11-24T00:40:09.241Z,99.99
2022-11-24T00:41:09.227Z,99.99
2022-11-24T00:42:09.203Z,99.99
2022-11-24T00:43:09.208Z,99.99
2022-11-24T00:44:09.190Z,99.99
2022-11-24T00:45:13.808Z,99.99
2022-11-24T00:46:10.273Z,99.99
2022-11-24T00:47:09.322Z,99.99
2022-11-24T00:48:09.144Z,99.99
2022-11-24T00:49:09.137Z,99.99
2022-11-24T00:50:09.126Z,99.99
2022-11-24T00:51:09.125Z,99.99
2022-11-24T00:52:09.097Z,99.99
2022-11-24T00:53:09.096Z,99.99
2022-11-24T00:54:09.092Z,99.99
2022-11-24T00:55:09.087Z,99.99
2022-11-24T00:56:09.076Z,99.99
2022-11-24T00:57:09.069Z,99.99
2022-11-24T00:58:09.045Z,99.99
2022-11-24T00:59:09.838Z,99.99
2022-11-24T01:00:09.018Z,99.99
2022-11-24T01:01:09.126Z,99.99
2022-11-24T01:02:09.105Z,99.99
2022-11-24T01:03:09.777Z,99.99
2022-11-24T01:04:08.979Z,99.99
2022-11-24T01:05:08.979Z,99.99
2022-11-24T01:06:08.959Z,99.99
2022-11-24T01:07:08.973Z,99.99
2022-11-24T01:08:09.150Z,99.99
2022-11-24T01:09:08.929Z,99.99
2022-11-24T01:10:08.918Z,99.99
2022-11-24T01:11:08.909Z,99.99
2022-11-24T01:12:08.891Z,99.99
2022-11-24T01:13:08.891Z,99.99
2022-11-24T01:14:08.885Z,99.99
2022-11-24T01:15:08.884Z,99.99
2022-11-24T01:16:08.925Z,99.99
2022-11-24T01:17:08.845Z,99.99
2022-11-24T01:18:09.650Z,99.99
2022-11-24T01:19:08.831Z,99.99
2022-11-24T01:20:08.803Z,99.99
2022-11-24T01:21:10.405Z,99.99
2022-11-24T01:22:08.793Z,99.99
2022-11-24T01:23:08.786Z,99.99
2022-11-24T01:24:08.764Z,99.99
2022-11-24T01:25:08.773Z,99.99
2022-11-24T01:26:08.763Z,99.99
2022-11-24T01:27:08.743Z,99.99
2022-11-24T01:28:08.725Z,99.99
2022-11-24T01:29:08.717Z,99.99
2022-11-24T01:30:08.704Z,99.99
2022-11-24T01:31:08.850Z,99.99
2022-11-24T01:32:08.674Z,99.99
2022-11-24T01:33:08.685Z,99.99
2022-11-24T01:34:08.666Z,99.99
2022-11-24T01:35:08.661Z,99.99
2022-11-24T01:36:08.634Z,99.99
2022-11-24T01:37:08.643Z,99.99
2022-11-24T01:38:08.617Z,99.99
2022-11-24T01:39:08.620Z,99.99
2022-11-24T01:40:08.605Z,99.99
2022-11-24T01:41:08.613Z,99.99
2022-11-24T01:42:08.566Z,99.99
2022-11-24T01:43:08.573Z,99.99
2022-11-24T01:44:08.559Z,99.99
2022-11-24T01:45:08.558Z,99.99
2022-11-24T01:46:08.567Z,99.99
2022-11-24T01:47:08.533Z,99.99
2022-11-24T01:48:08.502Z,99.99
2022-11-24T01:49:08.519Z,99.99
2022-11-24T01:50:08.489Z,99.99
2022-11-24T01:51:08.507Z,99.99
2022-11-24T01:52:08.468Z,99.99
2022-11-24T01:53:08.559Z,99.99
2022-11-24T01:54:08.880Z,99.99
2022-11-24T01:55:08.439Z,99.99
2022-11-24T01:56:08.422Z,99.99
2022-11-24T01:57:08.419Z,99.99
2022-11-24T01:58:08.469Z,99.99
2022-11-24T01:59:08.415Z,99.99
2022-11-24T02:00:08.379Z,99.99
2022-11-24T02:01:08.429Z,99.99
2022-11-24T02:02:08.494Z,99.99
2022-11-24T02:03:09.015Z,99.99
2022-11-24T02:04:08.344Z,99.99
2022-11-24T02:05:08.341Z,99.99
2022-11-24T02:06:08.347Z,99.99
2022-11-24T02:07:08.395Z,99.99
2022-11-24T02:08:08.323Z,99.99
2022-11-24T02:09:08.304Z,99.99
2022-11-24T02:10:08.272Z,99.99
2022-11-24T02:11:08.288Z,99.99
2022-11-24T02:12:08.252Z,99.99
2022-11-24T02:13:08.273Z,99.99
2022-11-24T02:14:08.244Z,99.99
2022-11-24T02:15:08.274Z,99.99
2022-11-24T02:16:08.297Z,99.99
2022-11-24T02:17:08.213Z,99.99
2022-11-24T02:18:08.190Z,99.99
2022-11-24T02:19:08.204Z,99.99
2022-11-24T02:20:08.183Z,99.99
2022-11-24T02:21:08.174Z,99.99
2022-11-24T02:22:08.185Z,99.99
2022-11-24T02:23:08.155Z,99.99
2022-11-24T02:24:08.124Z,99.99
2022-11-24T02:25:08.125Z,99.99
2022-11-24T02:26:08.113Z,99.99
2022-11-24T02:27:08.107Z,99.99
2022-11-24T02:28:08.086Z,99.99
2022-11-24T02:29:08.089Z,99.99
2022-11-24T02:30:08.883Z,99.99
2022-11-24T02:31:08.164Z,99.99
2022-11-24T02:32:08.077Z,99.99
2022-11-24T02:33:08.036Z,99.99
2022-11-24T02:34:08.026Z,99.99
2022-11-24T02:35:08.028Z,99.99
2022-11-24T02:36:07.997Z,99.99
2022-11-24T02:37:08.008Z,99.99
2022-11-24T02:38:07.991Z,99.99
2022-11-24T02:39:07.979Z,99.99
2022-11-24T02:40:07.976Z,99.99
2022-11-24T02:41:07.964Z,99.99
2022-11-24T02:42:07.959Z,99.99
2022-11-24T02:43:07.941Z,99.99
2022-11-24T02:44:07.929Z,99.99
2022-11-24T02:45:07.912Z,99.99
2022-11-24T02:46:08.220Z,99.99
2022-11-24T02:47:07.910Z,99.99
2022-11-24T02:48:07.880Z,99.99
2022-11-24T02:49:07.880Z,99.99
2022-11-24T02:50:07.866Z,99.99
2022-11-24T02:51:07.856Z,99.99
2022-11-24T02:52:07.875Z,99.99
2022-11-24T02:53:07.846Z,99.99
2022-11-24T02:54:07.811Z,99.99
2022-11-24T02:55:07.820Z,99.99
2022-11-24T02:56:07.801Z,99.99
2022-11-24T02:57:08.210Z,99.99
2022-11-24T02:58:07.904Z,99.99
2022-11-24T02:59:07.780Z,99.99
2022-11-24T03:00:07.766Z,99.99
2022-11-24T03:01:07.822Z,99.99
2022-11-24T03:02:07.734Z,99.99
2022-11-24T03:03:07.778Z,99.99
2022-11-24T03:04:07.722Z,99.99
2022-11-24T03:05:07.704Z,99.99
2022-11-24T03:06:07.686Z,99.99
2022-11-24T03:07:07.741Z,99.99
2022-11-24T03:08:07.681Z,99.99
2022-11-24T03:09:07.676Z,99.99
2022-11-24T03:10:07.651Z,99.99
2022-11-24T03:11:07.644Z,99.99
2022-11-24T03:12:07.625Z,99.99
2022-11-24T03:13:07.642Z,99.99
2022-11-24T03:14:07.635Z,99.99
2022-11-24T03:15:07.605Z,99.99
2022-11-24T03:16:07.643Z,99.99
2022-11-24T03:17:07.592Z,99.99
2022-11-24T03:18:07.570Z,99.99
2022-11-24T03:19:07.679Z,99.99
2022-11-24T03:20:07.548Z,99.99
2022-11-24T03:21:07.546Z,99.99
2022-11-24T03:22:07.527Z,99.99
2022-11-24T03:23:07.517Z,99.99
2022-11-24T03:24:07.505Z,99.99
2022-11-24T03:25:08.287Z,99.99
2022-11-24T03:26:07.487Z,99.99
2022-11-24T03:27:07.478Z,99.99
2022-11-24T03:28:07.486Z,99.99
2022-11-24T03:29:07.459Z,99.99
2022-11-24T03:30:07.438Z,99.99
2022-11-24T03:31:07.497Z,99.99
2022-11-24T03:32:07.427Z,99.99
2022-11-24T03:33:07.424Z,99.99
2022-11-24T03:34:07.402Z,99.99
2022-11-24T03:35:07.479Z,99.99
2022-11-24T03:36:07.371Z,99.99
2022-11-24T03:37:07.382Z,99.99
2022-11-24T03:38:07.369Z,99.99
2022-11-24T03:39:07.360Z,99.99
2022-11-24T03:40:07.338Z,99.99
2022-11-24T03:41:07.333Z,99.99
2022-11-24T03:42:07.320Z,99.99
2022-11-24T03:43:07.321Z,99.99
2022-11-24T03:44:07.302Z,99.99
2022-11-24T03:46:08.289Z,99.99
2022-11-24T03:47:07.269Z,99.99
2022-11-24T03:48:07.263Z,99.99
2022-11-24T03:49:07.256Z,99.99
2022-11-24T03:50:07.232Z,99.99
2022-11-24T03:51:07.232Z,99.99
2022-11-24T03:52:08.520Z,99.99
2022-11-24T03:53:07.195Z,99.99
2022-11-24T03:54:07.204Z,99.99
2022-11-24T03:55:07.203Z,99.99
2022-11-24T03:56:07.175Z,99.99
2022-11-24T03:57:07.165Z,99.99
2022-11-24T03:58:07.173Z,99.99
2022-11-24T03:59:07.165Z,99.99
2022-11-24T04:00:07.136Z,99.99
2022-11-24T04:01:07.130Z,99.99
2022-11-24T04:02:07.295Z,99.99
2022-11-24T04:03:07.205Z,99.99
2022-11-24T04:04:07.106Z,99.99
2022-11-24T04:05:07.076Z,99.99
2022-11-24T04:06:07.097Z,99.99
2022-11-24T04:07:07.103Z,99.99
2022-11-24T04:08:07.058Z,99.99
2022-11-24T04:09:07.046Z,99.99
2022-11-24T04:10:07.068Z,99.99
2022-11-24T04:11:07.016Z,99.99
2022-11-24T04:12:07.050Z,99.99
2022-11-24T04:13:06.999Z,99.99
2022-11-24T04:14:13.210Z,99.99
2022-11-24T04:15:07.981Z,99.99
2022-11-24T04:16:07.046Z,99.99
2022-11-24T04:17:06.958Z,99.99
2022-11-24T04:18:06.948Z,99.99
2022-11-24T04:19:06.969Z,99.99
2022-11-24T04:20:06.930Z,99.99
2022-11-24T04:21:06.920Z,99.99
2022-11-24T04:22:06.913Z,99.99
2022-11-24T04:23:06.890Z,99.99
2022-11-24T04:24:06.891Z,99.99
2022-11-24T04:25:06.880Z,99.99
2022-11-24T04:26:06.869Z,99.99
2022-11-24T04:27:06.841Z,99.99
2022-11-24T04:28:06.856Z,99.99
2022-11-24T04:29:06.822Z,99.99
2022-11-24T04:30:06.821Z,99.99
2022-11-24T04:31:06.849Z,99.99
2022-11-24T04:32:06.830Z,99.99
2022-11-24T04:33:06.792Z,99.99
2022-11-24T04:34:06.814Z,99.99
2022-11-24T04:35:06.765Z,99.99
2022-11-24T04:36:06.761Z,99.99
2022-11-24T04:37:06.775Z,99.99
2022-11-24T04:38:06.745Z,99.99
2022-11-24T04:39:22.941Z,99.99
2022-11-24T04:40:07.722Z,99.99
2022-11-24T04:41:06.703Z,99.99
2022-11-24T04:42:07.203Z,99.99
2022-11-24T04:43:06.683Z,99.99
2022-11-24T04:44:06.675Z,99.99
2022-11-24T04:45:06.680Z,99.99
2022-11-24T04:46:06.790Z,99.99
2022-11-24T04:47:06.634Z,99.99
2022-11-24T04:48:06.635Z,99.99
2022-11-24T04:49:06.625Z,99.99
2022-11-24T04:50:06.615Z,99.99
2022-11-24T04:51:06.596Z,99.99
2022-11-24T04:52:06.596Z,99.99
2022-11-24T04:53:06.577Z,99.99
2022-11-24T04:54:06.600Z,99.99
2022-11-24T04:55:06.606Z,99.99
2022-11-24T04:56:06.569Z,99.99
2022-11-24T04:57:06.535Z,99.99
2022-11-24T04:58:06.535Z,99.99
2022-11-24T04:59:08.501Z,99.99
2022-11-24T05:00:06.523Z,99.99
2022-11-24T05:01:06.508Z,99.99
2022-11-24T05:02:06.548Z,99.99
2022-11-24T05:03:06.468Z,99.99
2022-11-24T05:04:06.512Z,99.99
2022-11-24T05:05:06.453Z,99.99
2022-11-24T05:06:06.447Z,99.99
2022-11-24T05:07:06.535Z,99.99
2022-11-24T05:08:06.452Z,99.99
2022-11-24T05:09:06.408Z,99.99
2022-11-24T05:10:06.408Z,99.99
2022-11-24T05:11:06.426Z,99.99
2022-11-24T05:12:06.380Z,99.99
2022-11-24T05:13:06.390Z,99.99
2022-11-24T05:14:06.369Z,99.99
2022-11-24T05:15:06.351Z,99.99
2022-11-24T05:16:06.376Z,99.99
2022-11-24T05:17:06.332Z,99.99
2022-11-24T05:18:06.320Z,99.99
2022-11-24T05:19:06.341Z,99.99
2022-11-24T05:20:06.302Z,99.99
2022-11-24T05:21:06.294Z,99.99
2022-11-24T05:22:06.280Z,99.99
2022-11-24T05:23:06.260Z,99.99
2022-11-24T05:24:06.263Z,99.99
2022-11-24T05:25:06.242Z,99.99
2022-11-24T05:26:06.242Z,99.99
2022-11-24T05:27:06.224Z,99.99
2022-11-24T05:28:06.223Z,99.99
2022-11-24T05:29:06.193Z,99.99
2022-11-24T05:30:06.203Z,99.99
2022-11-24T05:31:06.229Z,99.99
2022-11-24T05:32:06.211Z,99.99
2022-11-24T05:33:06.171Z,99.99
2022-11-24T05:34:06.155Z,99.99
2022-11-24T05:35:06.143Z,99.99
2022-11-24T05:36:06.144Z,99.99
2022-11-24T05:37:06.484Z,99.99
2022-11-24T05:38:06.115Z,99.99
2022-11-24T05:39:06.095Z,99.99
2022-11-24T05:40:06.525Z,99.99
2022-11-24T05:41:06.535Z,99.99
2022-11-24T05:42:06.073Z,99.99
2022-11-24T05:43:06.056Z,99.99
2022-11-24T05:44:06.055Z,99.99
2022-11-24T05:45:06.026Z,99.99
2022-11-24T05:46:06.076Z,99.99
2022-11-24T05:47:06.062Z,99.99
2022-11-24T05:48:06.006Z,99.99
2022-11-24T05:49:06.007Z,99.99
2022-11-24T05:50:05.987Z,99.99
2022-11-24T05:51:09.227Z,99.99
2022-11-24T05:52:05.967Z,99.99
2022-11-24T05:53:05.951Z,99.99
2022-11-24T05:54:06.067Z,99.99
2022-11-24T05:55:06.098Z,99.99
2022-11-24T05:56:05.928Z,99.99
2022-11-24T05:57:05.908Z,99.99
2022-11-24T05:58:06.708Z,99.99
2022-11-24T05:59:09.859Z,99.99
2022-11-24T06:00:05.895Z,99.99
2022-11-24T06:01:05.876Z,99.99
2022-11-24T06:02:06.006Z,99.99
2022-11-24T06:03:05.995Z,99.99
2022-11-24T06:04:05.849Z,99.99
2022-11-24T06:05:05.828Z,99.99
2022-11-24T06:06:05.839Z,99.99
2022-11-24T06:07:05.811Z,99.99
2022-11-24T06:08:05.800Z,99.99
2022-11-24T06:09:05.780Z,99.99
2022-11-24T06:10:05.780Z,99.99
2022-11-24T06:11:05.759Z,99.99
2022-11-24T06:12:05.762Z,99.99
2022-11-24T06:13:05.775Z,99.99
2022-11-24T06:14:10.788Z,99.99
2022-11-24T06:15:06.711Z,99.99
2022-11-24T06:16:05.794Z,99.99
2022-11-24T06:17:05.698Z,99.99
2022-11-24T06:18:05.701Z,99.99
2022-11-24T06:19:05.682Z,99.99
2022-11-24T06:20:05.690Z,99.99
2022-11-24T06:21:12.605Z,99.99
2022-11-24T06:22:06.652Z,99.99
2022-11-24T06:23:05.642Z,99.99
2022-11-24T06:24:05.635Z,99.99
2022-11-24T06:25:05.624Z,99.99
2022-11-24T06:26:05.704Z,99.99
2022-11-24T06:27:05.604Z,99.99
2022-11-24T06:28:05.601Z,99.99
2022-11-24T06:29:05.572Z,99.99
2022-11-24T06:30:05.584Z,99.99
2022-11-24T06:31:05.565Z,99.99
2022-11-24T06:32:05.622Z,99.99
2022-11-24T06:33:05.533Z,99.99
2022-11-24T06:34:05.536Z,99.99
2022-11-24T06:35:05.517Z,99.99
2022-11-24T06:36:05.518Z,99.99
2022-11-24T06:37:05.497Z,99.99
2022-11-24T06:38:05.489Z,99.99
2022-11-24T06:39:05.470Z,99.99
2022-11-24T06:40:05.466Z,99.99
2022-11-24T06:41:05.456Z,99.99
2022-11-24T06:42:06.237Z,99.99
2022-11-24T06:43:05.438Z,99.99
2022-11-24T06:44:05.427Z,99.99
2022-11-24T06:45:08.985Z,99.99
2022-11-24T06:46:05.483Z,99.99
2022-11-24T06:47:05.398Z,99.99
2022-11-24T06:48:06.196Z,99.99
2022-11-24T06:49:05.376Z,99.99
2022-11-24T06:50:05.369Z,99.99
2022-11-24T06:51:05.339Z,99.99
2022-11-24T06:52:05.340Z,99.99
2022-11-24T06:53:05.423Z,99.99
2022-11-24T06:54:05.329Z,99.99
2022-11-24T06:55:05.311Z,99.99
2022-11-24T06:56:06.697Z,99.99
2022-11-24T06:57:05.306Z,99.99
2022-11-24T06:58:05.283Z,99.99
2022-11-24T06:59:05.274Z,99.99
2022-11-24T07:00:05.251Z,99.99
2022-11-24T07:01:05.295Z,99.99
2022-11-24T07:02:05.238Z,99.99
2022-11-24T07:03:05.258Z,99.99
2022-11-24T07:04:05.252Z,99.99
2022-11-24T07:05:05.199Z,99.99
2022-11-24T07:06:05.201Z,99.99
2022-11-24T07:07:05.181Z,99.99
2022-11-24T07:08:05.180Z,99.99
2022-11-24T07:09:05.271Z,99.99
2022-11-24T07:10:05.164Z,99.99
2022-11-24T07:11:05.133Z,99.99
2022-11-24T07:12:05.132Z,99.99
2022-11-24T07:13:05.124Z,99.99
2022-11-24T07:14:05.116Z,99.99
2022-11-24T07:15:05.100Z,99.99
2022-11-24T07:16:05.119Z,99.99
2022-11-24T07:17:05.099Z,99.99
2022-11-24T07:18:05.084Z,99.99
2022-11-24T07:19:05.064Z,99.99
2022-11-24T07:20:05.052Z,99.99
2022-11-24T07:21:05.116Z,99.99
2022-11-24T07:22:05.139Z,99.99
2022-11-24T07:23:05.006Z,99.99
2022-11-24T07:24:05.005Z,99.99
2022-11-24T07:25:04.995Z,99.99
2022-11-24T07:26:06.860Z,99.99
2022-11-24T07:27:04.965Z,99.99
2022-11-24T07:28:04.965Z,99.99
2022-11-24T07:29:04.947Z,99.99
2022-11-24T07:30:04.946Z,99.99
2022-11-24T07:31:05.279Z,99.99
2022-11-24T07:32:05.849Z,99.99
2022-11-24T07:33:04.906Z,99.99
2022-11-24T07:34:04.897Z,99.99
2022-11-24T07:35:04.885Z,99.99
2022-11-24T07:36:04.880Z,99.99
2022-11-24T07:37:04.858Z,99.99
2022-11-24T07:38:04.868Z,99.99
2022-11-24T07:39:04.838Z,99.99
2022-11-24T07:40:04.842Z,99.99
2022-11-24T07:41:04.819Z,99.99
2022-11-24T07:42:04.821Z,99.99
2022-11-24T07:43:04.816Z,99.99
2022-11-24T07:44:04.800Z,99.99
2022-11-24T07:45:04.778Z,99.99
2022-11-24T07:46:04.808Z,99.99
2022-11-24T07:47:05.148Z,99.99
2022-11-24T07:48:04.772Z,99.99
2022-11-24T07:49:04.737Z,99.99
2022-11-24T07:50:04.752Z,99.99
2022-11-24T07:51:04.727Z,99.99
2022-11-24T07:52:04.712Z,99.99
2022-11-24T07:53:04.699Z,99.99
2022-11-24T07:54:04.691Z,99.99
2022-11-24T07:55:04.673Z,99.99
2022-11-24T07:56:04.683Z,99.99
2022-11-24T07:57:04.654Z,99.99
2022-11-24T07:58:04.652Z,99.99
2022-11-24T07:59:04.633Z,99.99
2022-11-24T08:00:04.623Z,99.99
2022-11-24T08:01:04.612Z,99.99
2022-11-24T08:02:04.640Z,99.99
2022-11-24T08:03:04.601Z,99.99
2022-11-24T08:04:04.612Z,99.99
2022-11-24T08:05:04.563Z,99.99
2022-11-24T08:07:05.554Z,99.99
2022-11-24T08:08:04.535Z,99.99
2022-11-24T08:09:04.537Z,99.99
2022-11-24T08:10:04.524Z,99.99
2022-11-24T08:11:04.515Z,99.99
2022-11-24T08:12:04.495Z,99.99
2022-11-24T08:13:04.493Z,99.99
2022-11-24T08:14:04.473Z,99.99
2022-11-24T08:15:09.520Z,99.99
2022-11-24T08:16:05.455Z,99.99
2022-11-24T08:17:04.490Z,99.99
2022-11-24T08:18:04.434Z,99.99
2022-11-24T08:19:04.431Z,99.99
2022-11-24T08:20:04.410Z,99.99
2022-11-24T08:21:04.453Z,99.99
2022-11-24T08:22:04.394Z,99.99
2022-11-24T08:23:04.377Z,99.99
2022-11-24T08:24:04.366Z,99.99
2022-11-24T08:25:04.358Z,99.99
2022-11-24T08:26:04.339Z,99.99
2022-11-24T08:27:04.340Z,99.99
2022-11-24T08:28:04.417Z,99.96
2022-11-24T08:29:04.320Z,99.08
2022-11-24T08:30:04.299Z,99.18
2022-11-24T08:31:04.290Z,99.95
2022-11-24T08:32:04.315Z,99.99
2022-11-24T08:33:04.280Z,99.99
2022-11-24T08:34:04.266Z,99.99
2022-11-24T08:35:19.171Z,99.99
2022-11-24T08:36:05.250Z,99.99
2022-11-24T08:37:04.283Z,99.99
2022-11-24T08:38:04.930Z,99.99
2022-11-24T08:39:04.224Z,99.99
2022-11-24T08:40:04.196Z,99.99
2022-11-24T08:41:04.182Z,99.99
2022-11-24T08:42:04.191Z,99.99
2022-11-24T08:43:04.171Z,99.99
2022-11-24T08:44:04.623Z,99.99
2022-11-24T08:45:19.292Z,99.99
2022-11-24T08:46:05.162Z,99.99
2022-11-24T08:47:04.134Z,99.99
2022-11-24T08:48:04.122Z,99.99
2022-11-24T08:49:04.128Z,99.99
2022-11-24T08:50:04.095Z,99.99
2022-11-24T08:51:04.085Z,99.99
2022-11-24T08:52:04.064Z,99.99
2022-11-24T08:53:04.376Z,99.99
2022-11-24T08:54:04.069Z,99.99
2022-11-24T08:55:04.045Z,99.99
2022-11-24T08:56:04.040Z,99.99
2022-11-24T08:57:04.018Z,99.99
2022-11-24T08:58:03.997Z,99.99
2022-11-24T08:59:04.143Z,99.99
2022-11-24T09:00:03.975Z,99.99
2022-11-24T09:01:04.064Z,99.99
2022-11-24T09:02:04.065Z,99.99
2022-11-24T09:03:03.957Z,99.99
2022-11-24T09:04:03.966Z,99.99
2022-11-24T09:05:05.341Z,99.99
2022-11-24T09:06:04.939Z,99.99
2022-11-24T09:07:03.919Z,99.99
2022-11-24T09:08:03.906Z,99.99
2022-11-24T09:09:03.890Z,99.99
2022-11-24T09:10:03.869Z,99.99
2022-11-24T09:11:03.878Z,99.99
2022-11-24T09:12:03.867Z,99.99
2022-11-24T09:13:03.850Z,99.99
2022-11-24T09:14:03.833Z,99.99
2022-11-24T09:15:03.831Z,99.99
2022-11-24T09:16:03.815Z,99.99
2022-11-24T09:17:03.898Z,99.99
2022-11-24T09:18:03.949Z,99.99
2022-11-24T09:19:03.791Z,99.99
2022-11-24T09:20:03.780Z,99.99
2022-11-24T09:21:03.774Z,99.99
2022-11-24T09:22:03.779Z,99.99
2022-11-24T09:23:03.752Z,99.99
2022-11-24T09:24:03.733Z,99.99
2022-11-24T09:25:03.994Z,99.99
2022-11-24T09:26:03.713Z,99.99
2022-11-24T09:27:03.707Z,99.99
2022-11-24T09:28:03.683Z,99.99
2022-11-24T09:29:03.693Z,99.99
2022-11-24T09:30:03.657Z,99.99
2022-11-24T09:31:03.694Z,99.99
2022-11-24T09:32:06.950Z,99.99
2022-11-24T09:33:03.666Z,99.99
2022-11-24T09:34:03.628Z,99.99
2022-11-24T09:35:03.625Z,99.99
2022-11-24T09:36:03.598Z,99.99
2022-11-24T09:37:03.594Z,99.99
2022-11-24T09:38:03.574Z,99.99
2022-11-24T09:39:03.675Z,99.99
2022-11-24T09:40:03.553Z,99.99
2022-11-24T09:41:03.556Z,99.99
2022-11-24T09:42:03.536Z,99.99
2022-11-24T09:43:03.533Z,99.99
2022-11-24T09:44:03.506Z,99.99
2022-11-24T09:45:03.517Z,99.99
2022-11-24T09:46:06.114Z,99.99
2022-11-24T09:47:03.564Z,99.99
2022-11-24T09:48:03.512Z,99.99
2022-11-24T09:49:03.467Z,99.99
2022-11-24T09:50:03.448Z,99.99
2022-11-24T09:51:03.461Z,99.99
2022-11-24T09:52:03.517Z,99.99
2022-11-24T09:53:03.428Z,99.99
2022-11-24T09:54:03.410Z,99.99
2022-11-24T09:55:03.406Z,99.99
2022-11-24T09:56:03.384Z,99.99
2022-11-24T09:57:03.387Z,99.99
2022-11-24T09:58:03.360Z,99.99
2022-11-24T09:59:03.367Z,99.99
2022-11-24T10:00:03.341Z,99.99
2022-11-24T10:01:03.363Z,99.99
2022-11-24T10:02:03.543Z,99.99
2022-11-24T10:03:03.323Z,99.99
2022-11-24T10:04:06.446Z,99.99
2022-11-24T10:05:03.376Z,99.99
2022-11-24T10:06:03.283Z,99.99
2022-11-24T10:07:03.293Z,99.99
2022-11-24T10:08:03.361Z,99.99
2022-11-24T10:09:03.255Z,99.99
2022-11-24T10:10:03.233Z,99.99
2022-11-24T10:11:03.368Z,99.99
2022-11-24T10:12:03.215Z,99.99
2022-11-24T10:13:03.203Z,99.99
2022-11-24T10:14:03.196Z,99.99
2022-11-24T10:15:03.186Z,99.99
2022-11-24T10:16:03.257Z,99.99
2022-11-24T10:17:03.974Z,99.99
2022-11-24T10:18:03.156Z,99.99
2022-11-24T10:19:03.142Z,99.99
2022-11-24T10:20:03.129Z,99.99
2022-11-24T10:21:03.138Z,99.99
2022-11-24T10:22:03.107Z,99.99
2022-11-24T10:23:03.105Z,99.99
2022-11-24T10:24:03.096Z,99.99
2022-11-24T10:25:03.199Z,99.99
2022-11-24T10:26:03.067Z,99.99
2022-11-24T10:27:03.060Z,99.99
2022-11-24T10:28:03.037Z,99.99
2022-11-24T10:29:03.166Z,99.99
2022-11-24T10:30:03.028Z,99.99
2022-11-24T10:31:03.061Z,99.99
2022-11-24T10:32:03.006Z,99.99
2022-11-24T10:33:02.998Z,99.60
2022-11-24T10:34:02.973Z,99.99
2022-11-24T10:35:02.990Z,99.99
2022-11-24T10:36:02.970Z,99.99
2022-11-24T10:37:03.007Z,99.99
2022-11-24T10:38:02.929Z,99.99
2022-11-24T10:39:02.953Z,99.99
2022-11-24T10:40:02.912Z,99.99
2022-11-24T10:41:02.934Z,99.99
2022-11-24T10:42:02.892Z,99.99
2022-11-24T10:43:02.899Z,99.99
2022-11-24T10:44:02.882Z,99.99
2022-11-24T10:45:02.862Z,99.99
2022-11-24T10:46:02.898Z,99.99
2022-11-24T10:47:02.901Z,99.99
2022-11-24T10:48:02.824Z,99.99
2022-11-24T10:49:02.832Z,99.99
2022-11-24T10:50:02.814Z,99.99
2022-11-24T10:51:02.803Z,99.99
2022-11-24T10:52:02.783Z,99.99
2022-11-24T10:53:02.933Z,99.99
2022-11-24T10:54:02.764Z,99.99
2022-11-24T10:55:02.763Z,99.56
2022-11-24T10:56:02.745Z,99.99
2022-11-24T10:57:02.735Z,99.99
2022-11-24T10:58:02.920Z,99.99
2022-11-24T10:59:02.727Z,98.28
2022-11-24T11:00:02.695Z,98.07
2022-11-24T11:01:02.780Z,98.75
2022-11-24T11:02:02.861Z,99.16
2022-11-24T11:03:02.889Z,99.42
2022-11-24T11:04:02.679Z,99.11
2022-11-24T11:05:02.661Z,98.86
2022-11-24T11:06:02.635Z,97.02
2022-11-24T11:07:02.637Z,96.03
2022-11-24T11:08:05.665Z,97.12
2022-11-24T11:09:02.608Z,97.32
2022-11-24T11:10:02.610Z,98.25
2022-11-24T11:11:02.598Z,97.63
2022-11-24T11:12:27.696Z,98.14
2022-11-24T11:13:03.589Z,97.63
2022-11-24T11:14:04.583Z,98.04
2022-11-24T11:15:02.551Z,98.76
2022-11-24T11:16:02.587Z,97.12
2022-11-24T11:17:02.529Z,96.70
2022-11-24T11:18:02.571Z,97.27
2022-11-24T11:19:04.317Z,97.47
2022-11-24T11:20:03.838Z,98.70
2022-11-24T11:21:02.557Z,98.96
2022-11-24T11:22:02.489Z,98.86
2022-11-24T11:23:02.463Z,96.14
2022-11-24T11:24:02.448Z,97.88
2022-11-24T11:25:02.452Z,96.34
2022-11-24T11:26:02.432Z,96.55
2022-11-24T11:27:02.422Z,96.55
2022-11-24T11:28:07.152Z,97.57
2022-11-24T11:31:21.083Z,94.85
2022-11-24T11:34:08.355Z,95.27
2022-11-24T11:35:03.339Z,94.34
2022-11-24T11:36:02.328Z,96.35
2022-11-24T11:37:02.327Z,96.45
2022-11-24T11:38:02.296Z,94.51
2022-11-24T11:39:02.296Z,94.92
2022-11-24T11:40:03.240Z,94.40
2022-11-24T11:41:02.378Z,94.51
2022-11-24T11:42:02.306Z,92.97
2022-11-24T11:43:03.419Z,94.51
2022-11-24T11:44:02.226Z,95.32
2022-11-24T11:45:02.227Z,94.77
2022-11-24T11:46:02.401Z,91.80
2022-11-24T11:47:02.333Z,92.93
2022-11-24T11:48:02.188Z,93.29
2022-11-24T11:49:02.188Z,91.75
2022-11-24T11:50:02.168Z,92.47
2022-11-24T11:52:03.149Z,91.86
2022-11-24T11:53:02.153Z,90.46
2022-11-24T11:54:02.257Z,91.35
2022-11-24T11:55:02.132Z,91.55
2022-11-24T11:56:02.105Z,90.42
2022-11-24T11:57:02.110Z,89.42
2022-11-24T11:58:02.083Z,88.39
2022-11-24T11:59:02.101Z,87.84
2022-11-24T12:00:02.051Z,88.08
2022-11-24T12:01:02.094Z,89.76
2022-11-24T12:02:02.041Z,91.61
2022-11-24T12:03:02.216Z,92.43
2022-11-24T12:04:02.129Z,93.55
2022-11-24T12:05:02.028Z,93.76
2022-11-24T12:06:02.005Z,93.60
2022-11-24T12:07:01.995Z,94.42
2022-11-24T12:08:08.036Z,92.78
2022-11-24T12:09:19.707Z,93.25
2022-11-24T12:10:02.954Z,89.42
2022-11-24T12:11:01.944Z,87.88
2022-11-24T12:12:01.926Z,87.77
2022-11-24T12:13:01.932Z,90.54
2022-11-24T12:14:01.918Z,88.08
2022-11-24T12:15:07.371Z,89.27
2022-11-24T12:16:02.975Z,88.68
2022-11-24T12:17:01.876Z,85.91
2022-11-24T12:18:01.880Z,88.26
2022-11-24T12:19:02.676Z,84.28
2022-11-24T12:20:01.868Z,85.16
2022-11-24T12:21:01.864Z,85.63
2022-11-24T12:22:01.828Z,85.59
2022-11-24T12:23:01.826Z,85.36
2022-11-24T12:24:01.808Z,88.88
2022-11-24T12:25:01.825Z,88.43
2022-11-24T12:26:01.793Z,88.43
2022-11-24T12:27:01.769Z,88.98
2022-11-24T12:28:01.770Z,89.29
2022-11-24T12:29:01.739Z,89.39
2022-11-24T12:30:01.747Z,90.00
2022-11-24T12:31:01.908Z,90.15
2022-11-24T12:32:01.823Z,90.97
2022-11-24T12:33:01.700Z,91.48
2022-11-24T12:34:01.773Z,91.64
2022-11-24T12:35:01.675Z,91.27
2022-11-24T12:36:01.969Z,90.56
2022-11-24T12:37:01.652Z,90.77
2022-11-24T12:38:01.672Z,91.89
2022-11-24T12:39:01.636Z,91.27
2022-11-24T12:40:05.433Z,90.15
2022-11-24T12:41:25.535Z,89.94
2022-11-24T12:42:02.623Z,89.53
2022-11-24T12:43:01.594Z,88.71
2022-11-24T12:44:01.583Z,89.47
2022-11-24T12:45:01.573Z,90.39
2022-11-24T12:46:01.569Z,89.47
2022-11-24T12:47:01.585Z,90.09
2022-11-24T12:48:01.556Z,89.06
2022-11-24T12:49:01.526Z,87.94
2022-11-24T12:50:01.578Z,87.96
2022-11-24T12:51:01.515Z,88.85
2022-11-24T12:52:01.629Z,88.41
2022-11-24T12:53:01.508Z,85.08
2022-11-24T12:54:01.505Z,85.24
2022-11-24T12:55:01.467Z,84.28
2022-11-24T12:56:01.472Z,80.98
2022-11-24T12:57:01.454Z,78.47
2022-11-24T12:58:03.990Z,81.94
2022-11-24T12:59:02.435Z,82.55